Oriibu — JD2579 — position and weather

sailwx.info

Track history (hours):
 
Tides and Currents Weather Stations Pressure Air Temp Water Temp Dewpoint Dewpoint Depression Visibility Wind Speed Wind Dir Waves Ship Positions

Oriibu

Last reported at 2016-Feb-10 23:31 UTC. Time now 2016-Feb-11 00:31 UTC.
Position N 35°27' E 139°42'.

Length 75 m; draft 4.2 m.

MMSI: 431000426.

Date/timePositionNaut miles runAvg speedWind from/ knotsBaromVisibWave heightAir tempDewpointWater temp
2016-Feb-10 23:31N 35°27' E 139°42'0 0.0
2016-Feb-10 22:31N 35°27' E 139°42'0 0.0
2016-Feb-10 21:31N 35°27' E 139°42'0 0.1
2016-Feb-10 20:31N 35°27' E 139°42'0 0.0
2016-Feb-10 19:28N 35°27' E 139°42'0 0.0
2016-Feb-10 18:31N 35°27' E 139°42'0 0.0
2016-Feb-10 17:31N 35°27' E 139°42'0 0.0
2016-Feb-10 16:31N 35°27' E 139°42'0 0.0
2016-Feb-10 15:31N 35°27' E 139°42'0 0.0
2016-Feb-10 14:31N 35°27' E 139°42'0 0.0
2016-Feb-10 13:31N 35°27' E 139°42'0 0.0
2016-Feb-10 12:28N 35°27' E 139°42'1 1.0
2016-Feb-10 11:34N 35°26' E 139°43'1110.1
2016-Feb-10 10:27N 35°15' E 139°47'245 6.3
2016-Feb-08 19:33N 34°08' E 134°60'1312.9
2016-Feb-08 18:32N 34°21' E 134°59'1212.2
2016-Feb-08 17:33N 34°33' E 135°03'1312.6
2016-Feb-08 16:32N 34°40' E 134°50'  
2016-Feb-05 12:28N 34°41' E 134°50'1010.9
2016-Feb-05 11:33N 34°37' E 135°01'2912.3
2016-Feb-05 09:11N 34°08' E 135°00'243 9.9
2016-Feb-04 08:32N 35°12' E 139°46'1212.3
2016-Feb-04 07:33N 35°24' E 139°42'1312.5
2016-Feb-04 06:33N 35°32' E 139°54'9 8.1
2016-Feb-04 05:24N 35°41' E 139°57'0 0.0
2016-Feb-04 04:33N 35°41' E 139°57'0 0.0
2016-Feb-04 03:30N 35°41' E 139°57'0 0.0
2016-Feb-04 02:30N 35°41' E 139°57'0 0.0
2016-Feb-04 01:33N 35°41' E 139°57'0 0.0
2016-Feb-04 00:33N 35°41' E 139°57'0 0.0
2016-Feb-03 23:27N 35°41' E 139°57'0 0.0
2016-Feb-03 22:33N 35°41' E 139°57'3 3.0
2016-Feb-03 21:33N 35°38' E 139°59'2 1.4
2016-Feb-03 20:28N 35°37' E 139°58'0 0.0
2016-Feb-03 19:22N 35°37' E 139°58'4 5.5
2016-Feb-03 18:33N 35°33' E 139°55'1111.4
2016-Feb-03 17:33N 35°24' E 139°46'1110.6
2016-Feb-03 16:31N 35°13' E 139°47'246 9.8
2016-Feb-02 15:28N 34°04' E 135°00'1612.4
2016-Feb-02 14:08N 34°20' E 134°59'712.4
2016-Feb-02 13:32N 34°28' E 135°01'10 9.9
2016-Feb-02 12:33N 34°37' E 134°58'3 0.1
2016-Feb-01 07:18N 34°37' E 134°54'912.5
2016-Feb-01 06:33N 34°35' E 135°05'  
Track history (hours):
 
Tides and Currents Weather Stations Pressure Air Temp Water Temp Dewpoint Dewpoint Depression Visibility Wind Speed Wind Dir Waves Ship Positions

Oriibu

Last reported at 2016-Feb-10 23:31 UTC. Time now 2016-Feb-11 00:31 UTC.
Position N 35°27' E 139°42'.

Length 75 m; draft 4.2 m.

MMSI: 431000426.

Date/timePositionNaut miles runAvg speedWind from/ knotsBaromVisibWave heightAir tempDewpointWater temp
2016-Feb-10 23:31N 35°27' E 139°42'0 0.0
2016-Feb-10 22:31N 35°27' E 139°42'0 0.0
2016-Feb-10 21:31N 35°27' E 139°42'0 0.1
2016-Feb-10 20:31N 35°27' E 139°42'0 0.0
2016-Feb-10 19:28N 35°27' E 139°42'0 0.0
2016-Feb-10 18:31N 35°27' E 139°42'0 0.0
2016-Feb-10 17:31N 35°27' E 139°42'0 0.0
2016-Feb-10 16:31N 35°27' E 139°42'0 0.0
2016-Feb-10 15:31N 35°27' E 139°42'0 0.0
2016-Feb-10 14:31N 35°27' E 139°42'0 0.0
2016-Feb-10 13:31N 35°27' E 139°42'0 0.0
2016-Feb-10 12:28N 35°27' E 139°42'1 1.0
2016-Feb-10 11:34N 35°26' E 139°43'1110.1
2016-Feb-10 10:27N 35°15' E 139°47'245 6.3
2016-Feb-08 19:33N 34°08' E 134°60'1312.9
2016-Feb-08 18:32N 34°21' E 134°59'1212.2
2016-Feb-08 17:33N 34°33' E 135°03'1312.6
2016-Feb-08 16:32N 34°40' E 134°50'  
2016-Feb-05 12:28N 34°41' E 134°50'1010.9
2016-Feb-05 11:33N 34°37' E 135°01'2912.3
2016-Feb-05 09:11N 34°08' E 135°00'243 9.9
2016-Feb-04 08:32N 35°12' E 139°46'1212.3
2016-Feb-04 07:33N 35°24' E 139°42'1312.5
2016-Feb-04 06:33N 35°32' E 139°54'9 8.1
2016-Feb-04 05:24N 35°41' E 139°57'0 0.0
2016-Feb-04 04:33N 35°41' E 139°57'0 0.0
2016-Feb-04 03:30N 35°41' E 139°57'0 0.0
2016-Feb-04 02:30N 35°41' E 139°57'0 0.0
2016-Feb-04 01:33N 35°41' E 139°57'0 0.0
2016-Feb-04 00:33N 35°41' E 139°57'0 0.0
2016-Feb-03 23:27N 35°41' E 139°57'0 0.0
2016-Feb-03 22:33N 35°41' E 139°57'3 3.0
2016-Feb-03 21:33N 35°38' E 139°59'2 1.4
2016-Feb-03 20:28N 35°37' E 139°58'0 0.0
2016-Feb-03 19:22N 35°37' E 139°58'4 5.5
2016-Feb-03 18:33N 35°33' E 139°55'1111.4
2016-Feb-03 17:33N 35°24' E 139°46'1110.6
2016-Feb-03 16:31N 35°13' E 139°47'246 9.8
2016-Feb-02 15:28N 34°04' E 135°00'1612.4
2016-Feb-02 14:08N 34°20' E 134°59'712.4
2016-Feb-02 13:32N 34°28' E 135°01'10 9.9
2016-Feb-02 12:33N 34°37' E 134°58'3 0.1
2016-Feb-01 07:18N 34°37' E 134°54'912.5
2016-Feb-01 06:33N 34°35' E 135°05'  

Dump ship's entire track history